createdAt,value
2022-09-04T00:02:50.460Z,18.43
2022-09-04T00:05:23.990Z,18.36
2022-09-04T00:08:19.481Z,18.32
2022-09-04T00:11:07.298Z,18.28
2022-09-04T00:13:57.547Z,18.23
2022-09-04T00:16:37.405Z,18.15
2022-09-04T00:19:33.704Z,18.08
2022-09-04T00:22:02.981Z,17.97
2022-09-04T00:24:42.534Z,18.00
2022-09-04T00:27:23.089Z,18.01
2022-09-04T00:30:14.038Z,18.08
2022-09-04T00:32:46.345Z,18.01
2022-09-04T00:35:32.672Z,18.12
2022-09-04T00:38:10.449Z,18.14
2022-09-04T00:41:15.230Z,18.09
2022-09-04T00:44:18.898Z,18.08
2022-09-04T00:46:54.315Z,17.85
2022-09-04T00:49:42.219Z,17.73
2022-09-04T00:52:32.501Z,17.71
2022-09-04T00:55:34.371Z,17.62
2022-09-04T00:58:09.770Z,17.58
2022-09-04T01:00:36.808Z,17.52
2022-09-04T01:03:23.679Z,17.52
2022-09-04T01:06:19.967Z,17.44
2022-09-04T01:09:12.346Z,17.47
2022-09-04T01:12:00.004Z,17.41
2022-09-04T01:14:48.269Z,17.34
2022-09-04T01:17:30.435Z,17.26
2022-09-04T01:20:21.799Z,17.34
2022-09-04T01:23:30.615Z,17.35
2022-09-04T01:26:25.213Z,17.29
2022-09-04T01:29:18.872Z,17.25
2022-09-04T01:32:20.890Z,17.17
2022-09-04T01:35:05.357Z,17.10
2022-09-04T01:37:45.305Z,17.08
2022-09-04T01:40:35.694Z,17.02
2022-09-04T01:43:06.991Z,16.97
2022-09-04T01:46:10.227Z,16.99
2022-09-04T01:49:04.100Z,17.00
2022-09-04T01:52:07.964Z,17.00
2022-09-04T01:55:01.778Z,16.90
2022-09-04T01:57:57.796Z,16.91
2022-09-04T02:00:25.610Z,16.98
2022-09-04T02:03:13.585Z,16.93
2022-09-04T02:06:14.347Z,17.02
2022-09-04T02:09:09.875Z,16.97
2022-09-04T02:11:38.003Z,16.93
2022-09-04T02:14:20.071Z,16.87
2022-09-04T02:17:02.214Z,16.91
2022-09-04T02:19:57.434Z,16.91
2022-09-04T02:22:49.219Z,17.07
2022-09-04T02:25:37.135Z,17.10
2022-09-04T02:28:39.587Z,17.09
2022-09-04T02:31:24.223Z,17.07
2022-09-04T02:34:15.009Z,17.09
2022-09-04T02:36:50.690Z,17.06
2022-09-04T02:39:28.228Z,17.00
2022-09-04T02:42:21.283Z,17.03
2022-09-04T02:45:21.755Z,17.05
2022-09-04T02:48:13.805Z,16.97
2022-09-04T02:50:59.321Z,16.93
2022-09-04T02:53:50.183Z,16.95
2022-09-04T02:56:27.917Z,16.95
2022-09-04T02:59:16.487Z,16.95
2022-09-04T03:01:50.014Z,17.00
2022-09-04T03:04:40.285Z,16.98
2022-09-04T03:07:13.474Z,16.97
2022-09-04T03:09:55.754Z,16.83
2022-09-04T03:12:37.451Z,16.94
2022-09-04T03:15:27.301Z,16.94
2022-09-04T03:18:05.674Z,17.00
2022-09-04T03:21:02.411Z,17.04
2022-09-04T03:23:46.695Z,17.09
2022-09-04T03:26:19.560Z,17.06
2022-09-04T03:29:24.690Z,17.09
2022-09-04T03:32:15.188Z,17.04
2022-09-04T03:34:59.926Z,17.02
2022-09-04T03:37:45.907Z,16.86
2022-09-04T03:40:21.359Z,17.04
2022-09-04T03:43:05.861Z,17.03
2022-09-04T03:45:50.860Z,17.08
2022-09-04T03:48:45.024Z,16.94
2022-09-04T03:51:40.744Z,17.04
2022-09-04T03:54:28.944Z,17.01
2022-09-04T03:57:25.293Z,17.00
2022-09-04T04:00:10.336Z,16.94
2022-09-04T04:03:07.588Z,16.85
2022-09-04T04:05:47.776Z,16.67
2022-09-04T04:08:37.107Z,16.79
2022-09-04T04:11:24.147Z,16.67
2022-09-04T04:14:12.744Z,16.53
2022-09-04T04:17:27.752Z,16.48
2022-09-04T04:20:16.705Z,16.45
2022-09-04T04:23:06.229Z,16.43
2022-09-04T04:25:52.656Z,16.44
2022-09-04T04:28:56.529Z,16.44
2022-09-04T04:31:46.272Z,16.47
2022-09-04T04:34:29.565Z,16.50
2022-09-04T04:37:09.042Z,16.55
2022-09-04T04:39:58.789Z,16.42
2022-09-04T04:42:44.747Z,16.51
2022-09-04T04:45:40.461Z,16.50
2022-09-04T04:48:28.922Z,16.52
2022-09-04T04:51:32.856Z,16.54
2022-09-04T04:54:23.856Z,16.46
2022-09-04T04:57:05.107Z,16.46
2022-09-04T05:00:05.712Z,16.29
2022-09-04T05:03:08.555Z,16.39
2022-09-04T05:05:59.819Z,16.34
2022-09-04T05:08:50.191Z,16.27
2022-09-04T05:11:34.525Z,16.24
2022-09-04T05:14:28.675Z,16.26
2022-09-04T05:17:19.975Z,16.28
2022-09-04T05:20:14.582Z,16.24
2022-09-04T05:22:47.661Z,16.21
2022-09-04T05:25:20.089Z,16.21
2022-09-04T05:28:28.395Z,16.23
2022-09-04T05:31:05.228Z,16.15
2022-09-04T05:33:43.765Z,16.07
2022-09-04T05:36:41.354Z,16.11
2022-09-04T05:39:47.227Z,16.13
2022-09-04T05:42:45.527Z,16.17
2022-09-04T05:45:25.208Z,16.22
2022-09-04T05:47:51.719Z,16.30
2022-09-04T05:50:24.233Z,16.19
2022-09-04T05:53:28.534Z,16.26
2022-09-04T05:56:07.150Z,16.28
2022-09-04T05:59:10.768Z,16.34
2022-09-04T06:02:05.151Z,16.37
2022-09-04T06:04:37.589Z,16.37
2022-09-04T06:07:36.322Z,16.36
2022-09-04T06:10:47.863Z,16.38
2022-09-04T06:13:38.413Z,16.42
2022-09-04T06:16:17.863Z,16.49
2022-09-04T06:18:50.395Z,16.57
2022-09-04T06:21:35.571Z,16.63
2022-09-04T06:24:11.061Z,16.68
2022-09-04T06:27:10.895Z,16.71
2022-09-04T06:29:57.791Z,16.88
2022-09-04T06:32:44.761Z,16.96
2022-09-04T06:35:23.541Z,17.08
2022-09-04T06:38:00.775Z,17.16
2022-09-04T06:40:41.995Z,17.24
2022-09-04T06:43:19.467Z,17.16
2022-09-04T06:46:02.474Z,17.35
2022-09-04T06:49:00.472Z,17.49
2022-09-04T06:51:34.653Z,17.57
2022-09-04T06:54:01.158Z,17.70
2022-09-04T06:56:46.050Z,17.92
2022-09-04T06:59:55.763Z,17.98
2022-09-04T07:02:57.745Z,18.20
2022-09-04T07:05:49.522Z,18.33
2022-09-04T07:08:54.224Z,18.52
2022-09-04T07:11:55.329Z,18.58
2022-09-04T07:14:55.981Z,18.79
2022-09-04T07:17:30.170Z,18.81
2022-09-04T07:20:02.849Z,18.92
2022-09-04T07:22:56.986Z,19.02
2022-09-04T07:25:29.577Z,19.05
2022-09-04T07:28:14.778Z,19.15
2022-09-04T07:31:11.189Z,19.22
2022-09-04T07:33:50.402Z,19.34
2022-09-04T07:36:40.507Z,19.52
2022-09-04T07:39:30.964Z,19.57
2022-09-04T07:42:23.742Z,19.71
2022-09-04T07:45:16.583Z,19.93
2022-09-04T07:47:47.519Z,20.06
2022-09-04T07:50:29.166Z,20.26
2022-09-04T07:53:32.783Z,20.44
2022-09-04T07:56:30.048Z,20.63
2022-09-04T07:59:04.919Z,20.72
2022-09-04T08:01:44.685Z,20.81
2022-09-04T08:04:44.351Z,20.89
2022-09-04T08:07:34.175Z,21.14
2022-09-04T08:10:10.298Z,21.26
2022-09-04T08:13:15.153Z,21.35
2022-09-04T08:15:58.890Z,21.28
2022-09-04T08:18:53.091Z,21.44
2022-09-04T08:21:33.581Z,21.56
2022-09-04T08:24:37.171Z,21.67
2022-09-04T08:27:51.701Z,21.76
2022-09-04T08:30:22.201Z,21.92
2022-09-04T08:33:10.398Z,22.06
2022-09-04T08:35:52.659Z,22.32
2022-09-04T08:38:31.005Z,22.44
2022-09-04T08:41:35.422Z,22.63
2022-09-04T08:44:26.579Z,22.71
2022-09-04T08:47:01.669Z,22.65
2022-09-04T08:50:03.840Z,23.22
2022-09-04T08:53:08.121Z,23.60
2022-09-04T08:56:09.125Z,23.98
2022-09-04T08:59:07.368Z,24.22
2022-09-04T09:01:44.521Z,24.21
2022-09-04T09:04:51.466Z,24.57
2022-09-04T09:07:55.669Z,24.93
2022-09-04T09:10:57.183Z,25.19
2022-09-04T09:13:49.218Z,25.41
2022-09-04T09:16:42.861Z,25.31
2022-09-04T09:19:22.705Z,25.51
2022-09-04T09:22:10.266Z,25.25
2022-09-04T09:24:56.181Z,25.53
2022-09-04T09:27:26.733Z,25.82
2022-09-04T09:29:56.186Z,25.82
2022-09-04T09:32:33.857Z,25.82
2022-09-04T09:35:02.909Z,25.93
2022-09-04T09:38:06.604Z,26.19
2022-09-04T09:41:09.687Z,26.41
2022-09-04T09:44:08.117Z,26.48
2022-09-04T09:46:58.265Z,26.47
2022-09-04T09:50:22.998Z,26.40
2022-09-04T09:53:13.207Z,26.63
2022-09-04T09:56:04.956Z,26.73
2022-09-04T09:59:00.616Z,26.63
2022-09-04T10:01:55.009Z,26.44
2022-09-04T10:04:46.373Z,26.58
2022-09-04T10:07:18.472Z,26.37
2022-09-04T10:10:02.107Z,25.94
2022-09-04T10:13:15.245Z,25.75
2022-09-04T10:16:12.040Z,25.99
2022-09-04T10:19:12.272Z,25.97
2022-09-04T10:21:57.046Z,26.06
2022-09-04T10:25:03.691Z,26.01
2022-09-04T10:27:59.398Z,25.94
2022-09-04T10:30:35.711Z,25.91
2022-09-04T10:33:18.746Z,25.80
2022-09-04T10:36:13.538Z,25.95
2022-09-04T10:39:08.954Z,26.11
2022-09-04T10:41:47.436Z,26.24
2022-09-04T10:44:25.589Z,26.05
2022-09-04T10:47:11.738Z,26.21
2022-09-04T10:50:04.878Z,26.13
2022-09-04T10:53:23.705Z,25.93
2022-09-04T10:56:34.329Z,25.54
2022-09-04T10:59:03.732Z,25.37
2022-09-04T11:01:58.392Z,25.30
2022-09-04T11:05:20.422Z,25.13
2022-09-04T11:08:13.654Z,24.97
2022-09-04T11:10:55.655Z,25.07
2022-09-04T11:13:51.095Z,25.06
2022-09-04T11:16:30.828Z,24.97
2022-09-04T11:19:15.281Z,24.87
2022-09-04T11:22:20.400Z,24.85
2022-09-04T11:25:24.206Z,24.81
2022-09-04T11:28:06.439Z,24.75
2022-09-04T11:30:48.548Z,24.73
2022-09-04T11:33:44.179Z,24.63
2022-09-04T11:36:35.445Z,24.67
2022-09-04T11:39:18.439Z,24.59
2022-09-04T11:42:27.683Z,24.55
2022-09-04T11:45:31.512Z,24.58
2022-09-04T11:48:19.322Z,24.55
2022-09-04T11:51:16.610Z,24.50
2022-09-04T11:54:10.924Z,24.38
2022-09-04T11:57:20.957Z,24.29
2022-09-04T12:00:11.359Z,24.15
2022-09-04T12:02:47.457Z,24.21
2022-09-04T12:05:53.922Z,24.14
2022-09-04T12:08:38.593Z,24.08
2022-09-04T12:11:11.466Z,23.99
2022-09-04T12:14:15.521Z,23.87
2022-09-04T12:17:29.655Z,23.79
2022-09-04T12:20:23.996Z,23.78
2022-09-04T12:23:15.564Z,23.77
2022-09-04T12:26:21.431Z,23.82
2022-09-04T12:29:13.878Z,23.89
2022-09-04T12:31:51.824Z,24.03
2022-09-04T12:35:01.695Z,24.01
2022-09-04T12:37:54.005Z,24.18
2022-09-04T12:40:34.481Z,24.14
2022-09-04T12:43:24.263Z,24.13
2022-09-04T12:46:04.393Z,24.17
2022-09-04T12:48:59.789Z,24.18
2022-09-04T12:51:35.294Z,24.20
2022-09-04T12:54:31.493Z,24.24
2022-09-04T12:57:35.501Z,24.37
2022-09-04T13:00:16.231Z,24.43
2022-09-04T13:02:59.817Z,24.47
2022-09-04T13:05:52.840Z,24.48
2022-09-04T13:08:52.657Z,24.66
2022-09-04T13:11:40.298Z,24.66
2022-09-04T13:14:25.010Z,24.71
2022-09-04T13:17:06.590Z,24.57
2022-09-04T13:20:00.147Z,24.64
2022-09-04T13:22:46.258Z,24.59
2022-09-04T13:25:35.342Z,24.45
2022-09-04T13:28:24.657Z,24.52
2022-09-04T13:31:05.591Z,24.43
2022-09-04T13:34:03.084Z,24.56
2022-09-04T13:36:57.956Z,24.60
2022-09-04T13:39:50.492Z,24.63
2022-09-04T13:42:50.623Z,24.56
2022-09-04T13:45:23.723Z,24.55
2022-09-04T13:48:01.109Z,24.44
2022-09-04T13:50:37.783Z,24.38
2022-09-04T13:53:19.461Z,24.49
2022-09-04T13:55:51.459Z,24.34
2022-09-04T13:58:35.009Z,24.44
2022-09-04T14:01:07.191Z,24.26
2022-09-04T14:03:45.547Z,24.48
2022-09-04T14:06:16.514Z,24.34
2022-09-04T14:08:46.070Z,24.42
2022-09-04T14:11:58.415Z,24.44
2022-09-04T14:14:43.102Z,24.46
2022-09-04T14:17:10.329Z,24.47
2022-09-04T14:19:46.959Z,24.48
2022-09-04T14:22:42.478Z,24.44
2022-09-04T14:25:21.176Z,24.49
2022-09-04T14:28:04.292Z,24.47
2022-09-04T14:30:55.742Z,24.44
2022-09-04T14:33:51.186Z,24.35
2022-09-04T14:36:40.794Z,24.38
2022-09-04T14:39:14.617Z,24.34
2022-09-04T14:42:05.837Z,24.22
2022-09-04T14:44:32.541Z,24.25
2022-09-04T14:47:20.601Z,24.11
2022-09-04T14:49:51.369Z,24.24
2022-09-04T14:52:23.790Z,24.31
2022-09-04T14:54:57.674Z,24.34
2022-09-04T14:57:36.186Z,24.36
2022-09-04T15:00:11.210Z,24.34
2022-09-04T15:03:15.635Z,24.27
2022-09-04T15:05:56.811Z,24.38
2022-09-04T15:08:29.369Z,24.43
2022-09-04T15:11:00.706Z,24.42
2022-09-04T15:13:27.081Z,24.41
2022-09-04T15:16:31.765Z,24.43
2022-09-04T15:19:07.462Z,24.39
2022-09-04T15:21:58.916Z,24.34
2022-09-04T15:24:46.615Z,24.22
2022-09-04T15:27:16.540Z,24.17
2022-09-04T15:29:52.038Z,24.14
2022-09-04T15:32:36.695Z,24.09
2022-09-04T15:35:26.301Z,24.03
2022-09-04T15:38:25.934Z,23.96
2022-09-04T15:41:15.505Z,23.90
2022-09-04T15:43:46.736Z,23.88
2022-09-04T15:46:26.284Z,23.87
2022-09-04T15:48:55.495Z,23.85
2022-09-04T15:51:41.452Z,23.81
2022-09-04T15:54:14.115Z,23.76
2022-09-04T15:56:52.600Z,23.71
2022-09-04T15:59:20.334Z,23.64
2022-09-04T16:01:55.853Z,23.48
2022-09-04T16:04:32.755Z,23.50
2022-09-04T16:07:34.164Z,23.41
2022-09-04T16:10:13.614Z,23.34
2022-09-04T16:12:51.709Z,23.29
2022-09-04T16:15:24.225Z,23.31
2022-09-04T16:17:54.652Z,23.31
2022-09-04T16:20:29.401Z,23.21
2022-09-04T16:23:01.027Z,23.29
2022-09-04T16:25:31.104Z,23.28
2022-09-04T16:28:00.203Z,23.30
2022-09-04T16:30:56.826Z,23.18
2022-09-04T16:33:31.972Z,23.25
2022-09-04T16:36:11.595Z,23.27
2022-09-04T16:38:47.530Z,23.23
2022-09-04T16:41:18.419Z,23.25
2022-09-04T16:44:11.070Z,23.25
2022-09-04T16:46:44.528Z,23.21
2022-09-04T16:49:23.097Z,22.96
2022-09-04T16:52:22.580Z,22.97
2022-09-04T16:54:55.159Z,22.94
2022-09-04T16:57:50.487Z,22.89
2022-09-04T17:00:18.526Z,22.83
2022-09-04T17:02:53.294Z,22.72
2022-09-04T17:05:20.014Z,22.77
2022-09-04T17:07:59.405Z,22.72
2022-09-04T17:10:44.361Z,22.52
2022-09-04T17:13:27.605Z,22.50
2022-09-04T17:16:21.763Z,22.62
2022-09-04T17:18:55.465Z,22.58
2022-09-04T17:26:29.838Z,22.54
2022-09-04T17:29:00.564Z,22.54
2022-09-04T17:29:17.148Z,22.50
2022-09-04T17:31:25.819Z,22.43
2022-09-04T17:40:38.041Z,22.43
2022-09-04T17:40:42.211Z,22.41
2022-09-04T17:41:31.383Z,22.37
2022-09-04T17:43:41.636Z,22.29
2022-09-04T17:46:23.378Z,22.33
2022-09-04T17:48:50.525Z,22.25
2022-09-04T17:51:25.595Z,22.21
2022-09-04T17:54:04.645Z,22.13
2022-09-04T17:56:53.683Z,22.07
2022-09-04T17:59:32.502Z,22.08
2022-09-04T18:02:18.981Z,21.98
2022-09-04T18:05:03.488Z,21.93
2022-09-04T18:08:08.379Z,21.91
2022-09-04T18:10:31.159Z,21.89
2022-09-04T18:13:36.520Z,21.88
2022-09-04T18:16:34.972Z,21.84
2022-09-04T18:19:32.757Z,21.77
2022-09-04T18:22:26.735Z,21.69
2022-09-04T18:25:15.982Z,21.57
2022-09-04T18:28:11.267Z,21.54
2022-09-04T18:37:09.838Z,21.51
2022-09-04T18:37:09.911Z,21.46
2022-09-04T18:37:25.486Z,21.20
2022-09-04T18:40:15.409Z,21.17
2022-09-04T18:48:52.799Z,21.12
2022-09-04T18:50:30.654Z,21.18
2022-09-04T18:50:38.908Z,21.21
2022-09-04T18:51:30.501Z,21.10
2022-09-04T18:54:33.190Z,21.04
2022-09-04T18:57:12.124Z,20.92
2022-09-04T18:59:44.458Z,20.93
2022-09-04T19:02:24.048Z,20.92
2022-09-04T19:04:56.097Z,20.80
2022-09-04T19:07:34.334Z,20.77
2022-09-04T19:10:09.666Z,20.72
2022-09-04T19:13:02.204Z,20.76
2022-09-04T19:15:45.509Z,20.73
2022-09-04T19:18:48.640Z,20.69
2022-09-04T19:21:23.402Z,20.57
2022-09-04T19:24:04.061Z,20.53
2022-09-04T19:26:40.705Z,20.49
2022-09-04T19:29:27.726Z,20.49
2022-09-04T19:32:04.817Z,20.34
2022-09-04T19:34:47.293Z,20.47
2022-09-04T19:40:01.945Z,20.36
2022-09-04T19:46:03.405Z,20.20
2022-09-04T19:46:03.889Z,20.38
2022-09-04T19:46:29.502Z,20.23
2022-09-04T19:52:17.822Z,20.20
2022-09-04T19:53:24.424Z,20.20
2022-09-04T19:55:25.360Z,20.17
2022-09-04T19:58:23.833Z,20.08
2022-09-04T20:00:56.744Z,20.19
2022-09-04T20:03:52.428Z,20.15
2022-09-04T20:06:25.495Z,20.10
2022-09-04T20:09:05.387Z,19.90
2022-09-04T20:11:43.302Z,19.96
2022-09-04T20:14:21.509Z,20.02
2022-09-04T20:16:57.257Z,20.12
2022-09-04T20:19:28.970Z,20.09
2022-09-04T20:22:00.675Z,20.06
2022-09-04T20:24:43.236Z,20.00
2022-09-04T20:27:38.439Z,19.91
2022-09-04T20:30:11.933Z,19.89
2022-09-04T20:33:05.320Z,19.82
2022-09-04T20:35:42.968Z,19.58
2022-09-04T20:38:25.480Z,19.74
2022-09-04T20:41:01.768Z,19.73
2022-09-04T20:43:47.399Z,19.61
2022-09-04T20:52:46.018Z,19.72
2022-09-04T20:52:53.680Z,19.62
2022-09-04T20:53:07.685Z,19.57
2022-09-04T20:55:46.127Z,19.54
2022-09-04T21:03:13.055Z,19.44
2022-09-04T21:03:22.838Z,19.42
2022-09-04T21:04:15.464Z,19.41
2022-09-04T21:06:52.052Z,19.50
2022-09-04T21:09:54.816Z,19.44
2022-09-04T21:12:38.873Z,19.47
2022-09-04T21:15:42.748Z,19.43
2022-09-04T21:18:29.418Z,19.49
2022-09-04T21:21:17.086Z,19.40
2022-09-04T21:24:03.052Z,19.44
2022-09-04T21:26:49.059Z,19.39
2022-09-04T21:29:21.731Z,19.16
2022-09-04T21:32:18.645Z,19.26
2022-09-04T21:35:29.172Z,19.15
2022-09-04T21:38:07.014Z,18.97
2022-09-04T21:40:51.222Z,18.94
2022-09-04T21:43:37.651Z,18.81
2022-09-04T21:46:31.984Z,18.80
2022-09-04T21:49:10.876Z,18.91
2022-09-04T21:51:58.983Z,19.03
2022-09-04T21:59:32.716Z,19.02
2022-09-04T22:02:29.982Z,18.80
2022-09-04T22:02:42.951Z,18.81
2022-09-04T22:04:08.135Z,18.77
2022-09-04T22:08:52.909Z,18.68
2022-09-04T22:13:30.398Z,18.47
2022-09-04T22:13:37.632Z,18.63
2022-09-04T22:16:45.704Z,18.58
2022-09-04T22:19:36.722Z,18.62
2022-09-04T22:22:31.080Z,18.45
2022-09-04T22:25:16.238Z,18.46
2022-09-04T22:28:08.969Z,18.46
2022-09-04T22:31:04.516Z,18.38
2022-09-04T22:34:15.678Z,18.27
2022-09-04T22:37:00.857Z,18.38
2022-09-04T22:39:46.203Z,18.33
2022-09-04T22:42:38.389Z,18.19
2022-09-04T22:45:20.126Z,18.32
2022-09-04T22:48:05.284Z,18.30
2022-09-04T22:50:50.218Z,18.15
2022-09-04T22:53:38.271Z,18.24
2022-09-04T22:56:23.439Z,18.19
2022-09-04T22:59:26.654Z,18.17
2022-09-04T23:02:39.902Z,18.07
2022-09-04T23:05:29.201Z,18.06
2022-09-04T23:13:42.023Z,17.99
2022-09-04T23:13:49.424Z,17.94
2022-09-04T23:14:23.571Z,17.92
2022-09-04T23:16:59.349Z,17.98
2022-09-04T23:26:33.134Z,17.94
2022-09-04T23:26:46.041Z,17.83
2022-09-04T23:26:54.235Z,17.77
2022-09-04T23:29:00.144Z,17.75
2022-09-04T23:32:13.225Z,17.72
2022-09-04T23:35:15.047Z,17.73
2022-09-04T23:38:08.384Z,17.72
2022-09-04T23:40:42.819Z,17.54
2022-09-04T23:43:28.031Z,17.58
2022-09-04T23:46:18.052Z,17.45
2022-09-04T23:49:05.481Z,17.61
2022-09-04T23:51:58.150Z,17.60
2022-09-04T23:54:55.609Z,17.60
2022-09-04T23:57:54.440Z,17.63
